createdAt,value
2023-03-31T00:01:54.326Z,35.90
2023-03-31T00:04:32.254Z,35.90
2023-03-31T00:07:08.171Z,36.10
2023-03-31T00:09:46.120Z,36.00
2023-03-31T00:12:21.891Z,36.00
2023-03-31T00:14:56.909Z,35.80
2023-03-31T00:17:33.151Z,35.90
2023-03-31T00:20:12.494Z,35.90
2023-03-31T00:22:47.632Z,35.80
2023-03-31T00:25:22.532Z,36.00
2023-03-31T00:27:58.026Z,35.80
2023-03-31T00:30:32.878Z,35.90
2023-03-31T00:33:09.426Z,35.90
2023-03-31T00:35:46.100Z,36.00
2023-03-31T00:38:22.088Z,36.20
2023-03-31T00:40:59.069Z,35.90
2023-03-31T00:43:37.262Z,35.90
2023-03-31T00:46:20.611Z,35.80
2023-03-31T00:48:57.897Z,35.80
2023-03-31T00:51:35.623Z,36.00
2023-03-31T00:54:11.696Z,36.00
2023-03-31T00:56:48.964Z,36.00
2023-03-31T00:59:28.185Z,36.10
2023-03-31T01:02:04.646Z,35.90
2023-03-31T01:04:46.487Z,36.10
2023-03-31T01:07:25.772Z,35.70
2023-03-31T01:10:04.831Z,35.80
2023-03-31T01:12:44.424Z,35.60
2023-03-31T01:15:19.711Z,35.60
2023-03-31T01:17:55.943Z,35.50
2023-03-31T01:21:10.145Z,35.60
2023-03-31T01:24:08.467Z,35.50
2023-03-31T01:27:27.975Z,35.40
2023-03-31T01:30:37.397Z,35.30
2023-03-31T01:34:03.531Z,35.30
2023-03-31T01:37:14.658Z,35.10
2023-03-31T01:40:10.536Z,35.20
2023-03-31T01:42:57.667Z,34.90
2023-03-31T01:46:00.703Z,35.00
2023-03-31T01:48:44.890Z,35.00
2023-03-31T01:51:37.591Z,35.10
2023-03-31T01:54:28.287Z,35.20
2023-03-31T01:57:28.485Z,34.40
2023-03-31T02:00:18.203Z,34.00
2023-03-31T02:03:19.302Z,34.30
2023-03-31T02:05:58.980Z,34.30
2023-03-31T02:08:44.273Z,34.20
2023-03-31T02:11:20.288Z,34.40
2023-03-31T02:13:56.926Z,34.00
2023-03-31T02:16:34.739Z,34.20
2023-03-31T02:19:11.058Z,33.70
2023-03-31T02:21:51.400Z,33.90
2023-03-31T02:24:27.706Z,34.00
2023-03-31T02:27:28.400Z,34.80
2023-03-31T02:30:04.945Z,36.00
2023-03-31T02:32:46.623Z,36.90
2023-03-31T02:35:23.085Z,36.90
2023-03-31T02:37:58.922Z,37.70
2023-03-31T02:40:33.914Z,38.10
2023-03-31T02:43:08.756Z,38.00
2023-03-31T02:45:51.628Z,38.30
2023-03-31T02:48:29.631Z,38.30
2023-03-31T02:51:38.332Z,38.40
2023-03-31T02:55:04.690Z,38.50
2023-03-31T02:58:00.310Z,38.70
2023-03-31T03:01:01.815Z,39.00
2023-03-31T03:04:19.499Z,39.00
2023-03-31T03:07:15.289Z,39.20
2023-03-31T03:10:14.378Z,39.30
2023-03-31T03:13:18.021Z,39.40
2023-03-31T03:16:19.204Z,39.50
2023-03-31T03:19:03.865Z,39.70
2023-03-31T03:21:38.720Z,39.80
2023-03-31T03:24:16.933Z,39.90
2023-03-31T03:26:51.918Z,39.80
2023-03-31T03:29:27.618Z,39.70
2023-03-31T03:32:02.444Z,39.90
2023-03-31T03:34:37.916Z,39.90
2023-03-31T03:37:12.817Z,39.80
2023-03-31T03:39:47.680Z,40.10
2023-03-31T03:42:22.722Z,40.10
2023-03-31T03:44:57.574Z,40.20
2023-03-31T03:47:32.494Z,40.20
2023-03-31T03:50:08.405Z,40.30
2023-03-31T03:52:43.689Z,40.20
2023-03-31T03:55:18.559Z,40.30
2023-03-31T03:57:53.384Z,40.30
2023-03-31T04:00:28.238Z,40.20
2023-03-31T04:03:03.275Z,40.30
2023-03-31T04:05:38.472Z,40.50
2023-03-31T04:08:13.319Z,40.50
2023-03-31T04:10:49.818Z,40.50
2023-03-31T04:13:24.736Z,40.60
2023-03-31T04:15:59.625Z,40.80
2023-03-31T04:18:37.036Z,40.90
2023-03-31T04:21:15.461Z,41.00
2023-03-31T04:24:07.301Z,41.40
2023-03-31T04:26:43.351Z,41.50
2023-03-31T04:29:20.906Z,41.80
2023-03-31T04:31:59.196Z,42.10
2023-03-31T04:34:37.047Z,42.20
2023-03-31T04:37:11.941Z,42.20
2023-03-31T04:39:50.640Z,42.40
2023-03-31T04:42:25.710Z,42.70
2023-03-31T04:45:00.648Z,42.70
2023-03-31T04:47:35.605Z,42.80
2023-03-31T04:50:13.979Z,42.80
2023-03-31T04:52:50.357Z,43.00
2023-03-31T04:55:25.810Z,43.00
2023-03-31T04:58:01.746Z,43.10
2023-03-31T05:00:36.593Z,43.10
2023-03-31T05:03:12.021Z,43.10
2023-03-31T05:05:46.924Z,43.10
2023-03-31T05:08:21.791Z,43.30
2023-03-31T05:10:57.110Z,43.30
2023-03-31T05:13:32.345Z,42.90
2023-03-31T05:16:14.770Z,42.70
2023-03-31T05:18:49.789Z,42.90
2023-03-31T05:21:26.753Z,43.20
2023-03-31T05:24:01.573Z,44.30
2023-03-31T05:26:36.577Z,44.90
2023-03-31T05:29:11.432Z,45.10
2023-03-31T05:31:47.274Z,45.90
2023-03-31T05:34:22.194Z,46.80
2023-03-31T05:36:57.710Z,48.50
2023-03-31T05:39:33.121Z,50.20
2023-03-31T05:42:08.495Z,52.10
2023-03-31T05:44:43.346Z,53.60
2023-03-31T05:47:18.774Z,56.90
2023-03-31T05:49:53.655Z,56.50
2023-03-31T05:52:28.528Z,58.00
2023-03-31T05:55:04.437Z,58.90
2023-03-31T05:57:39.319Z,60.10
2023-03-31T06:00:15.176Z,60.70
2023-03-31T06:02:51.372Z,61.90
2023-03-31T06:05:26.896Z,62.50
2023-03-31T06:08:01.983Z,62.70
2023-03-31T06:10:38.841Z,62.70
2023-03-31T06:13:13.762Z,63.30
2023-03-31T06:16:00.316Z,63.80
2023-03-31T06:18:36.539Z,64.60
2023-03-31T06:21:16.272Z,64.40
2023-03-31T06:23:55.090Z,64.50
2023-03-31T06:26:36.091Z,64.60
2023-03-31T06:29:11.083Z,65.00
2023-03-31T06:31:45.964Z,65.10
2023-03-31T06:34:21.920Z,65.20
2023-03-31T06:36:56.952Z,65.50
2023-03-31T06:39:31.918Z,65.60
2023-03-31T06:42:07.224Z,65.50
2023-03-31T06:44:48.715Z,65.70
2023-03-31T06:47:23.702Z,65.90
2023-03-31T06:49:58.629Z,66.10
2023-03-31T06:52:33.483Z,66.40
2023-03-31T06:55:09.277Z,67.00
2023-03-31T06:57:44.199Z,67.90
2023-03-31T07:00:21.597Z,68.40
2023-03-31T07:02:58.290Z,68.70
2023-03-31T07:05:33.335Z,69.30
2023-03-31T07:08:08.237Z,70.60
2023-03-31T07:10:46.571Z,72.00
2023-03-31T07:13:21.450Z,71.90
2023-03-31T07:15:56.720Z,72.50
2023-03-31T07:18:35.574Z,72.30
2023-03-31T07:21:11.103Z,71.80
2023-03-31T07:23:46.233Z,71.80
2023-03-31T07:26:21.353Z,72.50
2023-03-31T07:28:57.381Z,71.30
2023-03-31T07:31:32.778Z,70.70
2023-03-31T07:34:07.796Z,69.90
2023-03-31T07:36:42.752Z,68.50
2023-03-31T07:39:17.834Z,67.10
2023-03-31T07:41:52.757Z,65.00
2023-03-31T07:44:27.595Z,62.60
2023-03-31T07:47:06.158Z,62.30
2023-03-31T07:49:41.083Z,61.00
2023-03-31T07:52:16.433Z,60.50
2023-03-31T07:54:51.553Z,62.10
2023-03-31T07:57:26.627Z,62.10
2023-03-31T08:00:05.939Z,60.10
2023-03-31T08:02:47.161Z,56.40
2023-03-31T08:05:22.135Z,57.20
2023-03-31T08:07:57.204Z,57.10
2023-03-31T08:10:32.240Z,56.00
2023-03-31T08:13:07.303Z,53.60
2023-03-31T08:15:42.291Z,52.70
2023-03-31T08:18:17.496Z,52.10
2023-03-31T08:20:52.512Z,52.20
2023-03-31T08:23:27.510Z,51.10
2023-03-31T08:26:21.837Z,49.90
2023-03-31T08:28:59.063Z,50.30
2023-03-31T08:31:34.043Z,50.30
2023-03-31T08:34:09.069Z,51.20
2023-03-31T08:36:44.106Z,51.10
2023-03-31T08:39:18.962Z,49.00
2023-03-31T08:42:16.533Z,47.30
2023-03-31T08:45:22.530Z,45.20
2023-03-31T08:48:30.915Z,45.30
2023-03-31T08:51:14.689Z,45.10
2023-03-31T08:54:21.794Z,44.60
2023-03-31T08:56:57.474Z,44.30
2023-03-31T08:59:34.850Z,43.50
2023-03-31T09:02:30.568Z,43.00
2023-03-31T09:05:27.462Z,44.20
2023-03-31T09:08:36.934Z,42.80
2023-03-31T09:11:33.218Z,41.70
2023-03-31T09:14:27.122Z,41.10
2023-03-31T09:17:29.924Z,39.20
2023-03-31T09:20:14.430Z,39.60
2023-03-31T09:23:27.023Z,38.40
2023-03-31T09:26:04.307Z,37.90
2023-03-31T09:28:40.805Z,37.40
2023-03-31T09:31:19.984Z,36.30
2023-03-31T09:34:01.570Z,36.00
2023-03-31T09:36:36.561Z,35.40
2023-03-31T09:39:14.839Z,34.50
2023-03-31T09:41:52.208Z,34.10
2023-03-31T09:44:39.291Z,33.60
2023-03-31T09:47:29.213Z,33.60
2023-03-31T09:50:04.796Z,32.80
2023-03-31T09:52:56.551Z,32.60
2023-03-31T09:55:56.952Z,31.80
2023-03-31T09:58:32.382Z,32.00
2023-03-31T10:01:09.914Z,32.00
2023-03-31T10:03:55.385Z,31.80
2023-03-31T10:06:30.846Z,31.40
2023-03-31T10:09:06.329Z,30.30
2023-03-31T10:11:54.916Z,30.80
2023-03-31T10:14:44.407Z,31.00
2023-03-31T10:17:24.918Z,30.90
2023-03-31T10:20:11.875Z,31.60
2023-03-31T10:22:47.158Z,30.10
2023-03-31T10:25:27.942Z,30.20
2023-03-31T10:28:03.395Z,29.90
2023-03-31T10:30:40.509Z,30.20
2023-03-31T10:33:25.024Z,30.10
2023-03-31T10:36:02.694Z,30.20
2023-03-31T10:38:43.545Z,29.90
2023-03-31T10:41:28.589Z,29.80
2023-03-31T10:44:04.936Z,29.80
2023-03-31T10:46:49.502Z,30.00
2023-03-31T10:49:28.398Z,30.00
2023-03-31T10:52:04.487Z,30.00
2023-03-31T10:54:48.414Z,28.70
2023-03-31T10:57:56.366Z,28.70
2023-03-31T11:00:56.572Z,28.30
2023-03-31T11:04:23.706Z,28.60
2023-03-31T11:07:29.375Z,28.40
2023-03-31T11:10:32.321Z,28.60
2023-03-31T11:13:26.250Z,28.70
2023-03-31T11:16:31.633Z,29.20
2023-03-31T11:19:45.522Z,28.40
2023-03-31T11:22:38.172Z,31.40
2023-03-31T11:25:39.901Z,35.00
2023-03-31T11:29:03.563Z,38.90
2023-03-31T11:32:16.246Z,43.20
2023-03-31T11:35:00.268Z,49.30
2023-03-31T11:38:13.007Z,56.80
2023-03-31T11:41:06.714Z,63.70
2023-03-31T11:43:56.652Z,69.80
2023-03-31T11:46:57.530Z,74.20
2023-03-31T11:49:39.098Z,78.00
2023-03-31T11:52:16.937Z,79.60
2023-03-31T11:55:04.434Z,79.80
2023-03-31T11:57:44.316Z,79.40
2023-03-31T12:01:03.318Z,80.70
2023-03-31T12:03:46.858Z,80.40
2023-03-31T12:06:28.017Z,77.60
2023-03-31T12:09:24.324Z,79.50
2023-03-31T12:12:21.342Z,79.80
2023-03-31T12:15:06.138Z,80.20
2023-03-31T12:17:45.866Z,81.20
2023-03-31T12:20:39.013Z,81.60
2023-03-31T12:23:23.007Z,79.30
2023-03-31T12:26:11.755Z,79.30
2023-03-31T12:28:47.868Z,78.80
2023-03-31T12:31:25.574Z,79.30
2023-03-31T12:34:13.839Z,71.00
2023-03-31T12:37:16.590Z,66.20
2023-03-31T12:40:18.613Z,59.60
2023-03-31T12:43:22.273Z,58.80
2023-03-31T12:46:31.240Z,59.30
2023-03-31T12:49:12.178Z,54.70
2023-03-31T12:52:04.513Z,54.90
2023-03-31T12:55:04.235Z,53.30
2023-03-31T12:57:39.236Z,52.30
2023-03-31T13:00:27.300Z,50.50
2023-03-31T13:03:34.006Z,46.80
2023-03-31T13:06:32.785Z,42.00
2023-03-31T13:09:33.394Z,41.10
2023-03-31T13:12:30.920Z,39.20
2023-03-31T13:15:13.676Z,38.50
2023-03-31T13:18:03.327Z,36.00
2023-03-31T13:20:42.122Z,35.10
2023-03-31T13:23:22.528Z,37.90
2023-03-31T13:25:59.199Z,39.00
2023-03-31T13:28:42.995Z,41.60
2023-03-31T13:31:18.145Z,45.60
2023-03-31T13:34:02.865Z,46.30
2023-03-31T13:36:54.776Z,43.60
2023-03-31T13:39:45.849Z,48.30
2023-03-31T13:42:58.574Z,45.30
2023-03-31T13:46:08.295Z,44.20
2023-03-31T13:49:20.296Z,42.30
2023-03-31T13:52:10.296Z,44.40
2023-03-31T13:55:13.536Z,44.10
2023-03-31T13:58:30.053Z,42.20
2023-03-31T14:01:32.228Z,41.50
2023-03-31T14:04:46.841Z,42.70
2023-03-31T14:07:31.694Z,44.50
2023-03-31T14:10:24.466Z,50.30
2023-03-31T14:13:06.498Z,47.00
2023-03-31T14:15:48.468Z,48.10
2023-03-31T14:18:31.017Z,45.40
2023-03-31T14:21:33.089Z,47.80
2023-03-31T14:24:22.469Z,45.20
2023-03-31T14:27:20.572Z,43.20
2023-03-31T14:30:35.431Z,42.40
2023-03-31T14:33:41.109Z,42.90
2023-03-31T14:36:52.705Z,41.60
2023-03-31T14:39:35.614Z,38.90
2023-03-31T14:42:17.866Z,38.20
2023-03-31T14:45:06.111Z,39.50
2023-03-31T14:47:41.115Z,39.10
2023-03-31T14:50:18.926Z,35.90
2023-03-31T14:52:53.843Z,38.80
2023-03-31T14:55:44.113Z,35.10
2023-03-31T14:58:34.938Z,36.60
2023-03-31T15:01:21.235Z,34.90
2023-03-31T15:03:56.403Z,36.20
2023-03-31T15:06:33.083Z,36.60
2023-03-31T15:09:16.668Z,34.70
2023-03-31T15:12:07.924Z,34.20
2023-03-31T15:14:52.486Z,35.30
2023-03-31T15:17:37.641Z,36.00
2023-03-31T15:20:29.528Z,34.30
2023-03-31T15:23:27.471Z,34.90
2023-03-31T15:26:08.828Z,34.30
2023-03-31T15:29:02.078Z,33.70
2023-03-31T15:31:37.124Z,34.90
2023-03-31T15:34:24.583Z,33.10
2023-03-31T15:37:01.060Z,36.90
2023-03-31T15:39:38.284Z,32.20
2023-03-31T15:42:13.523Z,34.00
2023-03-31T15:44:57.054Z,34.60
2023-03-31T15:47:38.589Z,31.80
2023-03-31T15:50:16.167Z,31.80
2023-03-31T15:52:54.430Z,32.80
2023-03-31T15:55:40.277Z,31.90
2023-03-31T15:58:16.842Z,32.00
2023-03-31T16:00:53.221Z,33.60
2023-03-31T16:03:38.640Z,33.20
2023-03-31T16:06:41.880Z,36.00
2023-03-31T16:09:52.725Z,34.20
2023-03-31T16:12:43.532Z,33.80
2023-03-31T16:15:38.167Z,34.60
2023-03-31T16:18:18.895Z,35.50
2023-03-31T16:20:57.165Z,34.80
2023-03-31T16:23:38.073Z,34.30
2023-03-31T16:26:13.220Z,34.00
2023-03-31T16:28:52.845Z,34.40
2023-03-31T16:31:41.498Z,36.00
2023-03-31T16:34:16.826Z,37.00
2023-03-31T16:36:51.810Z,35.20
2023-03-31T16:39:26.744Z,34.90
2023-03-31T16:42:04.084Z,36.10
2023-03-31T16:44:40.310Z,35.40
2023-03-31T16:50:11.652Z,36.00
2023-03-31T16:52:47.221Z,37.30
2023-03-31T16:55:22.234Z,35.30
2023-03-31T16:57:59.609Z,35.20
2023-03-31T17:00:36.207Z,34.50
2023-03-31T17:03:12.400Z,35.40
2023-03-31T17:05:52.737Z,34.70
2023-03-31T17:08:31.313Z,34.20
2023-03-31T17:11:11.029Z,35.10
2023-03-31T17:13:46.492Z,34.30
2023-03-31T17:16:29.776Z,35.20
2023-03-31T17:19:11.581Z,34.80
2023-03-31T17:21:46.712Z,34.80
2023-03-31T17:24:22.364Z,35.70
2023-03-31T17:26:57.681Z,37.20
2023-03-31T17:29:32.517Z,36.40
2023-03-31T17:32:07.586Z,35.80
2023-03-31T17:34:42.625Z,35.10
2023-03-31T17:37:19.590Z,36.30
2023-03-31T17:39:55.548Z,36.40
2023-03-31T17:42:31.414Z,36.70
2023-03-31T17:45:08.702Z,36.40
2023-03-31T17:47:45.106Z,37.10
2023-03-31T17:50:20.115Z,37.70
2023-03-31T17:52:55.598Z,36.30
2023-03-31T17:55:31.307Z,36.80
2023-03-31T17:58:08.415Z,38.00
2023-03-31T18:00:43.437Z,41.20
2023-03-31T18:03:18.425Z,45.70
2023-03-31T18:05:53.383Z,47.90
2023-03-31T18:08:29.944Z,54.30
2023-03-31T18:11:08.293Z,60.90
2023-03-31T18:13:43.430Z,64.00
2023-03-31T18:16:19.377Z,67.80
2023-03-31T18:18:54.409Z,73.70
2023-03-31T18:21:29.368Z,75.20
2023-03-31T18:24:04.369Z,76.90
2023-03-31T18:26:40.144Z,78.60
2023-03-31T18:29:15.841Z,80.50
2023-03-31T18:31:50.829Z,81.40
2023-03-31T18:34:25.837Z,83.50
2023-03-31T18:37:00.755Z,84.50
2023-03-31T18:39:35.833Z,83.90
2023-03-31T18:42:10.738Z,83.30
2023-03-31T18:44:46.400Z,84.90
2023-03-31T18:47:21.678Z,86.30
2023-03-31T18:49:57.549Z,86.30
2023-03-31T18:52:32.472Z,85.40
2023-03-31T18:55:08.007Z,86.00
2023-03-31T18:57:42.970Z,85.70
2023-03-31T19:00:18.821Z,85.70
2023-03-31T19:02:54.574Z,85.80
2023-03-31T19:05:30.624Z,86.40
2023-03-31T19:08:06.651Z,85.90
2023-03-31T19:10:41.767Z,85.60
2023-03-31T19:13:16.852Z,85.20
2023-03-31T19:15:51.980Z,84.30
2023-03-31T19:18:29.342Z,85.30
2023-03-31T19:21:05.278Z,85.20
2023-03-31T19:23:40.570Z,86.00
2023-03-31T19:26:19.427Z,84.70
2023-03-31T19:28:54.391Z,84.70
2023-03-31T19:31:29.440Z,82.70
2023-03-31T19:34:05.938Z,82.10
2023-03-31T19:36:40.950Z,81.60
2023-03-31T19:39:16.669Z,82.80
2023-03-31T19:41:51.617Z,81.10
2023-03-31T19:44:26.538Z,80.20
2023-03-31T19:47:01.634Z,81.00
2023-03-31T19:49:36.864Z,81.30
2023-03-31T19:52:11.865Z,80.90
2023-03-31T19:54:46.826Z,80.00
2023-03-31T19:57:21.805Z,79.20
2023-03-31T19:59:56.719Z,79.30
2023-03-31T20:02:31.658Z,79.70
2023-03-31T20:05:07.448Z,79.50
2023-03-31T20:07:42.390Z,78.00
2023-03-31T20:10:17.329Z,77.50
2023-03-31T20:12:52.212Z,77.10
2023-03-31T20:15:27.175Z,75.20
2023-03-31T20:18:02.604Z,74.50
2023-03-31T20:20:38.071Z,74.30
2023-03-31T20:23:12.996Z,73.10
2023-03-31T20:25:48.482Z,72.30
2023-03-31T20:28:23.379Z,70.70
2023-03-31T20:30:58.244Z,69.80
2023-03-31T20:33:33.137Z,66.80
2023-03-31T20:36:14.012Z,65.20
2023-03-31T20:38:51.338Z,63.00
2023-03-31T20:41:28.619Z,65.10
2023-03-31T20:44:05.889Z,66.10
2023-03-31T20:46:42.206Z,64.80
2023-03-31T20:49:17.076Z,65.00
2023-03-31T20:51:51.961Z,65.30
2023-03-31T20:54:27.200Z,64.40
2023-03-31T20:57:05.649Z,64.80
2023-03-31T20:59:40.737Z,64.30
2023-03-31T21:02:16.196Z,63.20
2023-03-31T21:04:52.494Z,65.20
2023-03-31T21:07:27.326Z,65.10
2023-03-31T21:10:02.538Z,65.80
2023-03-31T21:12:37.937Z,65.00
2023-03-31T21:15:13.234Z,66.00
2023-03-31T21:17:48.147Z,64.10
2023-03-31T21:20:22.993Z,62.70
2023-03-31T21:22:57.969Z,63.00
2023-03-31T21:25:33.218Z,63.80
2023-03-31T21:28:08.513Z,61.70
2023-03-31T21:31:01.648Z,61.50
2023-03-31T21:33:39.569Z,61.50
2023-03-31T21:36:17.993Z,60.70
2023-03-31T21:38:53.959Z,61.70
2023-03-31T21:41:31.072Z,61.80
2023-03-31T21:44:06.504Z,62.60
2023-03-31T21:46:41.428Z,61.90
2023-03-31T21:49:17.352Z,63.60
2023-03-31T21:51:53.298Z,62.60
2023-03-31T21:54:28.236Z,59.00
2023-03-31T21:57:03.603Z,58.90
2023-03-31T21:59:39.809Z,59.20
2023-03-31T22:02:14.654Z,59.20
2023-03-31T22:04:49.748Z,61.10
2023-03-31T22:07:24.711Z,61.00
2023-03-31T22:09:59.561Z,61.80
2023-03-31T22:12:34.510Z,62.20
2023-03-31T22:15:10.856Z,62.90
2023-03-31T22:17:45.981Z,62.80
2023-03-31T22:20:21.005Z,63.20
2023-03-31T22:22:56.357Z,62.90
2023-03-31T22:25:31.524Z,62.00
2023-03-31T22:28:07.480Z,61.70
2023-03-31T22:30:43.076Z,61.90
2023-03-31T22:33:17.928Z,59.00
2023-03-31T22:35:52.867Z,58.60
2023-03-31T22:38:27.760Z,57.60
2023-03-31T22:41:02.831Z,57.40
2023-03-31T22:43:37.797Z,57.90
2023-03-31T22:46:12.880Z,55.70
2023-03-31T22:48:51.192Z,55.80
2023-03-31T22:51:27.037Z,57.00
2023-03-31T22:54:01.894Z,56.20
2023-03-31T22:56:36.945Z,55.30
2023-03-31T22:59:12.097Z,56.80
2023-03-31T23:01:52.782Z,56.50
2023-03-31T23:04:28.033Z,56.80
2023-03-31T23:07:02.994Z,55.90
2023-03-31T23:09:37.856Z,56.00
2023-03-31T23:12:12.733Z,57.00
2023-03-31T23:14:47.635Z,56.10
2023-03-31T23:17:22.759Z,57.50
2023-03-31T23:19:57.600Z,58.80
2023-03-31T23:22:33.968Z,56.50
2023-03-31T23:25:09.067Z,56.70
2023-03-31T23:27:43.923Z,56.90
2023-03-31T23:30:18.787Z,57.30
2023-03-31T23:32:55.205Z,56.20
2023-03-31T23:35:30.538Z,56.50
2023-03-31T23:38:06.170Z,56.60
2023-03-31T23:40:41.163Z,57.50
2023-03-31T23:43:16.599Z,56.50
2023-03-31T23:45:52.534Z,55.70
2023-03-31T23:48:27.383Z,56.90
2023-03-31T23:51:03.057Z,57.60
2023-03-31T23:53:38.135Z,56.30
2023-03-31T23:56:13.529Z,57.30
2023-03-31T23:58:48.390Z,56.00
